Time;durP1;ratioP1;P1;durP2;ratioP2;P2;SDS_P1;SDS_P2;PMS_P1;PMS_P2;Temp;Humidity;BMP_temperature;BMP_pressure;BME280_temperature;BME280_humidity;BME280_pressure;Samples;Min_cycle;Max_cycle;Signal;HPM_P1;HPM_P2
2021/07/20 00:01:35;;;;;;;8.80;6.70;;;18.60;1.00;;;;;;5137570;27;20192;-53
2021/07/20 00:04:01;;;;;;;9.63;6.50;;;18.60;1.00;;;;;;5130942;27;20350;-54
2021/07/20 00:06:26;;;;;;;10.93;6.37;;;18.50;1.00;;;;;;5131542;27;20435;-54
2021/07/20 00:08:52;;;;;;;8.80;7.20;;;18.50;1.00;;;;;;5130724;27;20181;-57
2021/07/20 00:11:17;;;;;;;10.63;7.10;;;18.50;1.00;;;;;;5131494;27;20181;-54
2021/07/20 00:13:43;;;;;;;9.30;8.10;;;18.50;1.00;;;;;;5126785;27;20226;-55
2021/07/20 00:16:09;;;;;;;9.63;6.87;;;18.50;1.00;;;;;;5109282;27;20193;-54
2021/07/20 00:18:36;;;;;;;8.83;7.27;;;18.40;1.00;;;;;;5127871;27;20174;-54
2021/07/20 00:21:06;;;;;;;8.87;6.67;;;18.30;1.00;;;;;;5128857;27;20430;-54
2021/07/20 00:23:32;;;;;;;9.70;6.60;;;18.30;1.00;;;;;;5130373;27;20458;-54
2021/07/20 00:25:59;;;;;;;8.87;7.97;;;18.40;1.00;;;;;;5131852;27;20447;-55
2021/07/20 00:28:25;;;;;;;7.80;7.00;;;18.10;1.00;;;;;;5130976;27;21179;-55
2021/07/20 00:30:51;;;;;;;10.23;7.33;;;18.10;1.00;;;;;;5113044;27;20452;-52
2021/07/20 00:33:17;;;;;;;8.63;6.87;;;18.10;1.00;;;;;;5128495;27;20498;-54
2021/07/20 00:35:43;;;;;;;8.90;7.30;;;18.00;1.00;;;;;;5128239;27;20970;-53
2021/07/20 00:38:11;;;;;;;10.90;7.60;;;18.10;1.00;;;;;;5130261;27;20447;-54
2021/07/20 00:40:37;;;;;;;11.70;6.87;;;18.10;1.00;;;;;;5127062;27;20439;-56
2021/07/20 00:43:04;;;;;;;10.77;7.80;;;18.00;1.00;;;;;;5122674;27;20495;-55
2021/07/20 00:45:30;;;;;;;10.70;6.80;;;18.00;1.00;;;;;;5129132;27;20245;-54
2021/07/20 00:47:55;;;;;;;9.60;6.87;;;17.90;1.00;;;;;;5128588;27;20447;-56
2021/07/20 00:50:26;;;;;;;7.57;6.77;;;17.90;1.00;;;;;;5125975;27;20184;-57
2021/07/20 00:52:51;;;;;;;10.87;7.07;;;17.90;1.00;;;;;;5126566;27;20229;-56
2021/07/20 00:55:18;;;;;;;8.27;7.07;;;17.90;1.00;;;;;;5108683;27;20805;-53
2021/07/20 00:57:44;;;;;;;12.77;7.17;;;17.80;1.00;;;;;;5125910;27;20196;-56
2021/07/20 01:00:14;;;;;;;10.47;7.40;;;17.70;1.00;;;;;;5130855;27;20431;-56
2021/07/20 01:02:40;;;;;;;11.80;7.40;;;17.80;1.00;;;;;;5110786;27;20431;-52
2021/07/20 01:05:08;;;;;;;10.40;7.33;;;17.70;1.00;;;;;;5126338;27;20466;-54
2021/07/20 01:07:35;;;;;;;9.93;7.30;;;17.80;1.00;;;;;;5111299;27;20211;-54
2021/07/20 01:10:04;;;;;;;13.43;8.23;;;17.70;1.00;;;;;;5129074;27;20514;-54
2021/07/20 01:12:34;;;;;;;9.37;7.90;;;17.70;1.00;;;;;;5124904;27;20793;-56
2021/07/20 01:15:01;;;;;;;8.30;7.43;;;17.70;1.00;;;;;;5130206;27;20451;-54
2021/07/20 01:17:27;;;;;;;8.50;7.07;;;17.70;1.00;;;;;;5127250;27;20479;-53
2021/07/20 01:19:54;;;;;;;11.63;7.63;;;17.70;1.00;;;;;;5130592;27;20470;-56
2021/07/20 01:22:30;;;;;;;9.63;8.03;;;17.70;1.00;;;;;;5107912;27;20598;-54
2021/07/20 01:25:09;;;;;;;8.60;7.70;;;17.70;1.00;;;;;;5126110;27;20450;-53
2021/07/20 01:27:37;;;;;;;9.40;6.47;;;17.70;1.00;;;;;;5128586;27;20445;-55
2021/07/20 01:30:03;;;;;;;10.57;7.10;;;17.80;1.00;;;;;;5129343;27;20443;-55
2021/07/20 01:32:29;;;;;;;9.63;7.10;;;17.80;1.00;;;;;;5130589;27;20438;-56
2021/07/20 01:34:55;;;;;;;9.47;6.40;;;17.90;1.00;;;;;;5129133;27;20451;-53
2021/07/20 01:37:22;;;;;;;9.40;8.30;;;18.00;1.00;;;;;;5126424;27;20555;-52
2021/07/20 01:39:49;;;;;;;10.13;8.20;;;18.00;1.00;;;;;;5130709;27;20431;-56
2021/07/20 01:42:15;;;;;;;8.47;7.40;;;18.00;1.00;;;;;;5126639;27;20923;-54
2021/07/20 01:44:42;;;;;;;11.27;7.77;;;17.90;1.00;;;;;;5130870;27;20792;-55
2021/07/20 01:47:08;;;;;;;10.50;7.50;;;17.90;1.00;;;;;;5129180;27;20450;-56
2021/07/20 01:49:34;;;;;;;10.57;7.40;;;18.00;1.00;;;;;;5128344;27;20423;-54
2021/07/20 01:52:01;;;;;;;10.40;7.30;;;17.90;1.00;;;;;;5126968;27;20466;-54
2021/07/20 01:54:27;;;;;;;11.30;8.03;;;17.90;1.00;;;;;;5130098;27;20573;-55
2021/07/20 01:56:52;;;;;;;8.50;7.27;;;17.90;1.00;;;;;;5128892;27;20462;-53
2021/07/20 01:59:18;;;;;;;10.60;8.10;;;17.90;1.00;;;;;;5126314;27;20445;-53
2021/07/20 02:01:54;;;;;;;11.83;8.40;;;18.00;1.00;;;;;;5129481;27;20196;-54
2021/07/20 02:04:46;;;;;;;10.60;7.10;;;18.00;1.00;;;;;;5126433;27;20439;-53
2021/07/20 02:10:00;;;;;;;8.50;6.87;;;17.90;1.00;;;;;;5130185;27;20800;-56
2021/07/20 02:12:38;;;;;;;8.50;6.73;;;17.90;1.00;;;;;;5125171;27;20442;-56
2021/07/20 02:15:06;;;;;;;9.20;7.37;;;18.00;1.00;;;;;;5130175;27;20628;-57
2021/07/20 02:17:35;;;;;;;10.13;7.70;;;18.00;1.00;;;;;;5127231;27;20913;-53
2021/07/20 02:20:07;;;;;;;7.67;6.77;;;18.00;1.00;;;;;;5129152;27;20845;-53
2021/07/20 02:22:34;;;;;;;8.60;7.20;;;17.90;1.00;;;;;;5128490;27;20445;-54
2021/07/20 02:25:03;;;;;;;8.70;7.03;;;17.90;1.00;;;;;;5093293;27;20444;-55
2021/07/20 02:27:29;;;;;;;7.83;6.77;;;17.90;1.00;;;;;;5126491;27;20450;-53
2021/07/20 02:29:58;;;;;;;8.23;7.00;;;17.90;1.00;;;;;;5129547;27;20438;-54
2021/07/20 02:32:27;;;;;;;10.47;7.93;;;17.80;1.00;;;;;;5132623;27;20427;-55
2021/07/20 02:34:54;;;;;;;7.67;6.60;;;17.90;1.00;;;;;;5130654;27;20512;-56
2021/07/20 02:37:21;;;;;;;9.47;7.60;;;17.70;1.00;;;;;;5133781;27;20438;-56
2021/07/20 02:39:48;;;;;;;9.17;6.47;;;17.90;1.00;;;;;;5129869;27;20467;-55
2021/07/20 02:42:14;;;;;;;10.37;7.00;;;17.90;1.00;;;;;;5133781;27;20431;-52
2021/07/20 02:44:40;;;;;;;11.50;7.50;;;17.90;1.00;;;;;;5132988;27;20437;-54
2021/07/20 02:47:06;;;;;;;10.97;7.13;;;17.90;1.00;;;;;;5111712;27;20441;-55
2021/07/20 02:49:36;;;;;;;7.67;6.87;;;18.30;1.00;;;;;;5120081;27;20492;-53
2021/07/20 02:52:02;;;;;;;9.67;6.83;;;17.80;1.00;;;;;;5131275;27;20482;-54
2021/07/20 02:54:28;;;;;;;11.90;7.63;;;17.80;1.00;;;;;;5129922;27;20839;-54
2021/07/20 02:56:55;;;;;;;10.63;7.63;;;17.80;1.00;;;;;;5131811;27;20824;-54
2021/07/20 02:59:27;;;;;;;8.37;7.47;;;17.80;1.00;;;;;;5129574;27;20442;-57
2021/07/20 03:01:55;;;;;;;10.77;6.67;;;17.90;1.00;;;;;;5131632;27;20449;-52
2021/07/20 03:04:22;;;;;;;12.43;7.20;;;17.70;1.00;;;;;;5133012;27;20495;-52
2021/07/20 03:07:00;;;;;;;8.70;7.60;;;17.90;1.00;;;;;;5132707;27;20438;-53
2021/07/20 03:09:28;;;;;;;8.90;7.17;;;18.00;1.00;;;;;;5133060;27;20465;-52
2021/07/20 03:12:00;;;;;;;8.87;7.70;;;17.90;1.00;;;;;;5133313;27;20512;-57
2021/07/20 03:14:27;;;;;;;8.47;7.50;;;18.00;1.00;;;;;;5131138;27;20449;-55
2021/07/20 03:16:55;;;;;;;8.47;7.40;;;17.90;1.00;;;;;;5126189;27;20471;-55
2021/07/20 03:19:25;;;;;;;8.97;7.43;;;17.90;1.00;;;;;;5133076;27;20441;-54
2021/07/20 03:21:54;;;;;;;14.07;7.10;;;17.90;1.00;;;;;;5128858;27;20435;-54
2021/07/20 03:24:21;;;;;;;7.20;6.50;;;18.00;1.00;;;;;;5130559;27;20780;-56
2021/07/20 03:26:49;;;;;;;8.70;7.10;;;17.90;1.00;;;;;;5130780;27;20735;-54
2021/07/20 03:29:15;;;;;;;13.30;8.43;;;17.90;1.00;;;;;;5132258;27;20446;-54
2021/07/20 03:31:41;;;;;;;7.63;6.77;;;17.90;1.00;;;;;;5128763;27;20447;-53
2021/07/20 03:34:08;;;;;;;8.00;7.20;;;18.00;1.00;;;;;;5137294;27;20443;-56
2021/07/20 03:36:34;;;;;;;9.27;6.73;;;17.90;1.00;;;;;;5128111;27;20462;-55
2021/07/20 03:39:01;;;;;;;10.57;7.73;;;18.00;1.00;;;;;;5127769;27;20503;-53
2021/07/20 03:41:28;;;;;;;8.57;6.93;;;18.00;1.00;;;;;;5129470;27;20458;-54
2021/07/20 03:43:57;;;;;;;9.93;7.13;;;18.00;1.00;;;;;;5132617;27;20441;-54
2021/07/20 03:46:23;;;;;;;10.43;7.50;;;19.80;1.00;;;;;;5131175;27;21071;-53
2021/07/20 03:48:51;;;;;;;13.20;7.87;;;18.00;1.00;;;;;;5133258;27;20772;-55
2021/07/20 03:51:17;;;;;;;10.67;7.40;;;18.00;1.00;;;;;;5125028;27;20483;-54
2021/07/20 03:53:44;;;;;;;8.17;7.30;;;18.10;1.00;;;;;;5129754;27;20540;-54
2021/07/20 03:56:10;;;;;;;11.00;7.50;;;18.10;1.00;;;;;;5124768;27;20490;-54
2021/07/20 03:58:39;;;;;;;11.37;10.10;;;18.10;1.00;;;;;;5131575;27;20455;-55
2021/07/20 04:01:05;;;;;;;8.67;7.23;;;18.10;1.00;;;;;;5131312;27;20177;-54
2021/07/20 04:03:34;;;;;;;11.67;7.57;;;18.10;1.00;;;;;;5130627;27;20459;-52
2021/07/20 04:06:03;;;;;;;13.23;7.47;;;18.10;1.00;;;;;;5131254;27;20547;-56
2021/07/20 04:08:31;;;;;;;8.93;7.77;;;18.20;1.00;;;;;;5112328;27;20483;-55
2021/07/20 04:10:58;;;;;;;9.83;7.50;;;18.20;1.00;;;;;;5127835;27;20525;-54
2021/07/20 04:13:24;;;;;;;8.97;7.70;;;18.30;1.00;;;;;;5129686;27;20799;-54
2021/07/20 04:16:02;;;;;;;10.90;8.17;;;18.30;1.00;;;;;;5130266;27;20458;-54
2021/07/20 04:18:30;;;;;;;13.70;7.30;;;18.40;1.00;;;;;;5132009;27;20470;-56
2021/07/20 04:20:57;;;;;;;8.20;7.40;;;18.30;1.00;;;;;;5128245;27;20471;-54
2021/07/20 04:23:24;;;;;;;12.17;8.07;;;18.40;1.00;;;;;;5130622;27;20447;-53
2021/07/20 04:25:54;;;;;;;11.73;8.20;;;18.40;1.00;;;;;;5130035;27;20495;-53
2021/07/20 04:28:21;;;;;;;10.73;7.27;;;18.40;1.00;;;;;;5108828;27;20439;-54
2021/07/20 04:30:47;;;;;;;10.40;7.30;;;18.40;1.00;;;;;;5129993;27;20470;-54
2021/07/20 04:33:14;;;;;;;10.60;6.80;;;18.50;1.00;;;;;;5111497;27;21059;-54
2021/07/20 04:35:40;;;;;;;7.93;7.13;;;18.60;1.00;;;;;;5131516;27;20459;-53
2021/07/20 04:38:09;;;;;;;13.53;8.07;;;18.50;1.00;;;;;;5131609;27;20860;-53
2021/07/20 04:40:37;;;;;;;7.83;6.90;;;18.60;1.00;;;;;;5131824;27;20427;-55
2021/07/20 04:43:03;;;;;;;9.17;7.13;;;18.70;1.00;;;;;;5131326;27;20441;-54
2021/07/20 04:45:29;;;;;;;9.87;7.20;;;18.80;1.00;;;;;;5128516;27;20442;-54
2021/07/20 04:47:55;;;;;;;8.70;6.67;;;19.00;1.00;;;;;;5131793;27;20169;-56
2021/07/20 04:50:20;;;;;;;7.50;6.20;;;19.00;1.00;;;;;;5128618;27;20519;-55
2021/07/20 04:52:46;;;;;;;11.53;7.47;;;19.00;1.00;;;;;;5128207;27;20693;-53
2021/07/20 04:55:13;;;;;;;11.10;6.77;;;19.10;1.00;;;;;;5129748;27;20205;-53
2021/07/20 04:57:39;;;;;;;9.67;7.03;;;19.10;1.00;;;;;;5129912;27;20175;-60
2021/07/20 05:00:07;;;;;;;8.83;7.03;;;19.10;1.00;;;;;;5131662;27;21035;-55
2021/07/20 05:02:35;;;;;;;8.60;6.90;;;19.20;1.00;;;;;;5126575;27;20273;-54
2021/07/20 05:05:01;;;;;;;9.93;7.40;;;19.30;1.00;;;;;;5113563;27;20481;-56
2021/07/20 05:07:28;;;;;;;10.90;7.57;;;19.20;1.00;;;;;;5132037;27;20451;-56
2021/07/20 05:09:54;;;;;;;12.73;7.80;;;19.40;1.00;;;;;;5131866;27;20958;-54
2021/07/20 05:12:20;;;;;;;9.30;7.30;;;19.50;1.00;;;;;;5128494;27;20434;-54
2021/07/20 05:14:46;;;;;;;7.20;6.50;;;19.50;1.00;;;;;;5131711;27;20955;-54
2021/07/20 05:17:12;;;;;;;7.90;6.60;;;19.50;1.00;;;;;;5128650;27;20477;-55
2021/07/20 05:19:38;;;;;;;7.77;6.07;;;19.40;1.00;;;;;;5127495;27;20579;-56
2021/07/20 05:22:04;;;;;;;8.83;6.83;;;19.40;1.00;;;;;;5130118;27;20241;-53
2021/07/20 05:24:31;;;;;;;13.50;7.93;;;19.50;1.00;;;;;;5127846;27;20511;-52
2021/07/20 05:26:59;;;;;;;7.67;6.87;;;19.50;1.00;;;;;;5129549;27;20475;-56
2021/07/20 05:29:25;;;;;;;7.43;6.23;;;19.50;1.00;;;;;;5128380;27;20430;-54
2021/07/20 05:31:52;;;;;;;8.20;6.83;;;19.50;1.00;;;;;;5126308;27;20709;-54
2021/07/20 05:34:19;;;;;;;10.23;7.57;;;19.60;1.00;;;;;;5127178;27;20527;-54
2021/07/20 05:36:45;;;;;;;11.43;7.20;;;19.60;1.00;;;;;;5130900;27;20469;-54
2021/07/20 05:39:11;;;;;;;9.10;6.50;;;19.60;1.00;;;;;;5124702;27;20440;-55
2021/07/20 05:41:42;;;;;;;7.70;6.90;;;19.80;1.00;;;;;;5094584;27;20443;-56
2021/07/20 05:44:10;;;;;;;12.43;6.67;;;19.80;1.00;;;;;;5126325;27;20931;-53
2021/07/20 05:46:38;;;;;;;8.07;7.00;;;19.70;1.00;;;;;;5126880;27;20443;-55
2021/07/20 05:49:03;;;;;;;11.23;6.97;;;19.70;1.00;;;;;;5110063;27;20431;-55
2021/07/20 05:51:30;;;;;;;9.57;7.50;;;19.80;1.00;;;;;;5127888;27;20896;-53
2021/07/20 05:53:56;;;;;;;12.70;6.67;;;19.90;1.00;;;;;;5110692;27;20203;-55
2021/07/20 05:56:28;;;;;;;11.07;6.70;;;19.90;1.00;;;;;;5129069;27;20512;-55
2021/07/20 05:58:54;;;;;;;8.40;6.73;;;19.80;1.00;;;;;;5128800;27;21013;-54
2021/07/20 06:01:20;;;;;;;7.07;6.27;;;19.70;1.00;;;;;;5124586;27;20444;-53
2021/07/20 06:03:46;;;;;;;8.50;6.93;;;19.70;1.00;;;;;;5130410;27;20173;-54
2021/07/20 06:06:12;;;;;;;8.10;6.97;;;19.80;1.00;;;;;;5128719;27;20223;-54
2021/07/20 06:08:38;;;;;;;7.87;5.63;;;20.00;1.00;;;;;;5132956;27;20466;-53
2021/07/20 06:11:05;;;;;;;7.00;6.13;;;20.10;1.00;;;;;;5134002;27;20677;-57
2021/07/20 06:13:35;;;;;;;8.07;5.90;;;20.30;1.00;;;;;;5131055;27;20443;-54
2021/07/20 06:16:02;;;;;;;7.60;6.20;;;20.40;1.00;;;;;;5112079;27;20463;-52
2021/07/20 06:18:29;;;;;;;7.20;5.77;;;20.40;1.00;;;;;;5131318;27;20431;-54
2021/07/20 06:20:58;;;;;;;8.00;6.40;;;20.60;1.00;;;;;;5133099;27;20431;-52
2021/07/20 06:23:25;;;;;;;11.60;7.30;;;20.60;1.00;;;;;;5130884;27;20545;-54
2021/07/20 06:25:51;;;;;;;9.13;6.17;;;20.30;1.00;;;;;;5111293;27;20446;-55
2021/07/20 06:28:20;;;;;;;6.93;5.83;;;20.60;1.00;;;;;;5134444;27;20529;-53
2021/07/20 06:30:46;;;;;;;9.20;6.13;;;20.60;1.00;;;;;;5133725;27;20481;-53
2021/07/20 06:33:13;;;;;;;6.80;6.03;;;20.50;1.00;;;;;;5138140;27;20436;-54
2021/07/20 06:35:44;;;;;;;6.20;5.60;;;20.60;1.00;;;;;;5130136;27;20493;-53
2021/07/20 06:38:18;;;;;;;8.47;6.63;;;20.50;1.00;;;;;;5131151;27;20434;-56
2021/07/20 06:40:45;;;;;;;6.50;5.90;;;20.70;1.00;;;;;;5134298;27;20507;-53
2021/07/20 06:43:14;;;;;;;6.77;6.13;;;20.90;1.00;;;;;;5131723;27;20525;-54
2021/07/20 06:45:42;;;;;;;6.50;5.80;;;21.20;1.00;;;;;;5131214;27;20439;-54
2021/07/20 06:48:12;;;;;;;7.53;5.63;;;21.50;1.00;;;;;;5132848;27;20437;-56
2021/07/20 06:50:37;;;;;;;7.47;5.00;;;21.50;1.00;;;;;;5132047;27;20438;-55
2021/07/20 06:53:03;;;;;;;6.20;5.00;;;21.60;1.00;;;;;;5128265;27;20889;-55
2021/07/20 06:55:30;;;;;;;6.17;5.20;;;21.70;1.00;;;;;;5132886;27;20201;-54
2021/07/20 06:57:57;;;;;;;5.90;4.70;;;21.70;1.00;;;;;;5115247;27;20272;-53
2021/07/20 07:00:23;;;;;;;5.40;4.77;;;21.80;1.00;;;;;;5130968;27;20417;-53
2021/07/20 07:02:54;;;;;;;6.20;4.80;;;21.70;1.00;;;;;;5131787;27;20451;-55
2021/07/20 07:05:24;;;;;;;5.70;4.77;;;20.60;1.00;;;;;;5133720;27;20435;-52
2021/07/20 07:07:50;;;;;;;5.97;3.80;;;21.80;1.00;;;;;;5129044;27;20450;-55
2021/07/20 07:10:18;;;;;;;5.73;4.47;;;22.00;1.00;;;;;;5131293;27;20427;-54
2021/07/20 07:12:46;;;;;;;5.70;4.50;;;22.20;1.00;;;;;;5132999;27;20804;-54
2021/07/20 07:15:12;;;;;;;5.77;4.40;;;22.10;1.00;;;;;;5113879;28;20462;-54
2021/07/20 07:17:38;;;;;;;5.20;4.40;;;22.20;1.00;;;;;;5130993;27;20434;-53
2021/07/20 07:20:06;;;;;;;7.10;4.60;;;22.20;1.00;;;;;;5130973;27;20421;-54
2021/07/20 07:22:34;;;;;;;5.30;4.80;;;22.20;1.00;;;;;;5112456;27;20649;-53
2021/07/20 07:25:00;;;;;;;5.07;4.57;;;22.40;1.00;;;;;;5133187;27;20434;-53
2021/07/20 07:27:27;;;;;;;4.10;3.67;;;22.40;1.00;;;;;;5114356;27;20443;-54
2021/07/20 07:29:53;;;;;;;6.17;4.60;;;22.40;1.00;;;;;;5131829;27;20442;-53
2021/07/20 07:32:20;;;;;;;5.47;4.50;;;22.70;1.00;;;;;;5131865;27;20657;-57
2021/07/20 07:34:46;;;;;;;6.73;5.40;;;22.90;1.00;;;;;;5130517;27;20959;-53
2021/07/20 07:37:17;;;;;;;7.27;5.13;;;22.90;1.00;;;;;;5116554;27;20996;-55
2021/07/20 07:39:44;;;;;;;5.77;4.60;;;22.90;1.00;;;;;;5131497;27;21225;-54
2021/07/20 07:42:12;;;;;;;6.27;4.20;;;23.00;1.00;;;;;;5130593;27;20962;-54
2021/07/20 07:44:40;;;;;;;5.83;4.70;;;23.10;1.00;;;;;;5130230;27;20438;-53
2021/07/20 07:47:06;;;;;;;7.20;5.30;;;23.10;1.00;;;;;;5129987;27;20974;-56
2021/07/20 07:49:34;;;;;;;7.10;5.27;;;23.00;1.00;;;;;;5130006;27;20447;-55
2021/07/20 07:52:00;;;;;;;7.67;4.90;;;23.00;1.00;;;;;;5132673;27;20553;-53
2021/07/20 07:54:26;;;;;;;6.63;4.83;;;22.90;1.00;;;;;;5130724;27;20524;-56
2021/07/20 07:56:52;;;;;;;5.40;4.50;;;23.00;1.00;;;;;;5132653;27;20968;-56
2021/07/20 07:59:23;;;;;;;7.77;5.03;;;23.30;1.00;;;;;;5130140;27;20185;-53
2021/07/20 08:01:50;;;;;;;6.23;4.40;;;23.50;1.00;;;;;;5129211;27;20531;-55
2021/07/20 08:04:23;;;;;;;8.37;5.00;;;23.50;1.00;;;;;;5129865;27;20435;-54
2021/07/20 08:06:51;;;;;;;7.70;4.73;;;23.70;1.00;;;;;;5111151;27;20473;-54
2021/07/20 08:09:19;;;;;;;7.60;4.63;;;23.90;1.00;;;;;;5129899;27;20941;-54
2021/07/20 08:11:47;;;;;;;9.53;5.07;;;24.20;1.00;;;;;;5128664;27;20413;-53
2021/07/20 08:14:13;;;;;;;5.20;4.63;;;24.10;1.00;;;;;;5131537;27;20431;-54
2021/07/20 08:16:43;;;;;;;7.40;3.97;;;24.10;1.00;;;;;;5130656;27;20570;-54
2021/07/20 08:19:10;;;;;;;6.30;4.73;;;24.00;1.00;;;;;;5130260;27;20442;-53
2021/07/20 08:21:36;;;;;;;6.97;4.50;;;23.90;1.00;;;;;;5132366;27;20447;-54
2021/07/20 08:24:01;;;;;;;7.30;4.60;;;23.90;1.00;;;;;;5128596;27;20977;-53
2021/07/20 08:26:33;;;;;;;6.20;4.27;;;26.30;1.00;;;;;;5132668;27;20186;-54
2021/07/20 08:29:06;;;;;;;6.07;4.47;;;23.50;1.00;;;;;;5131548;27;20216;-53
2021/07/20 08:31:57;;;;;;;6.77;5.07;;;23.20;1.00;;;;;;5132697;27;21303;-54
2021/07/20 08:34:24;;;;;;;5.53;4.13;;;23.20;1.00;;;;;;5130478;27;20451;-53
2021/07/20 08:36:54;;;;;;;5.63;4.60;;;23.00;1.00;;;;;;5114366;27;20590;-54
2021/07/20 08:39:22;;;;;;;6.53;3.90;;;23.10;1.00;;;;;;5132766;27;20431;-54
2021/07/20 08:42:05;;;;;;;5.87;4.53;;;22.90;1.00;;;;;;5133062;27;20474;-54
2021/07/20 08:44:55;;;;;;;4.73;3.90;;;22.70;1.00;;;;;;5132218;27;20693;-56
2021/07/20 08:48:03;;;;;;;7.20;4.30;;;22.80;1.00;;;;;;5132484;27;20423;-55
2021/07/20 08:50:31;;;;;;;3.77;3.43;;;22.80;1.00;;;;;;5118518;27;20443;-56
2021/07/20 08:53:21;;;;;;;4.50;4.10;;;22.90;1.00;;;;;;5132363;27;20458;-55
2021/07/20 08:55:51;;;;;;;8.60;4.13;;;22.90;1.00;;;;;;5127863;27;20518;-54
2021/07/20 08:58:26;;;;;;;6.70;3.83;;;23.00;1.00;;;;;;5132333;27;20446;-56
2021/07/20 09:01:02;;;;;;;4.93;3.90;;;22.90;1.00;;;;;;5132431;27;20431;-53
2021/07/20 09:03:50;;;;;;;5.03;4.13;;;23.00;1.00;;;;;;5132374;27;20447;-54
2021/07/20 09:06:46;;;;;;;4.73;3.20;;;23.30;1.00;;;;;;5132349;27;20427;-54
2021/07/20 09:09:21;;;;;;;5.50;4.30;;;23.50;1.00;;;;;;5119103;27;20501;-53
2021/07/20 09:12:02;;;;;;;4.70;4.30;;;23.40;1.00;;;;;;5131987;27;20446;-54
2021/07/20 09:14:56;;;;;;;5.30;4.10;;;23.30;1.00;;;;;;5131853;27;20795;-52
2021/07/20 09:17:29;;;;;;;7.00;4.33;;;23.20;1.00;;;;;;5131857;27;20434;-55
2021/07/20 09:20:06;;;;;;;6.60;4.33;;;23.40;1.00;;;;;;5130629;27;20488;-55
2021/07/20 09:22:39;;;;;;;5.40;4.33;;;23.20;1.00;;;;;;5113321;27;20934;-53
2021/07/20 09:25:18;;;;;;;5.10;4.60;;;23.70;1.00;;;;;;5131803;27;20405;-53
2021/07/20 09:28:05;;;;;;;3.83;3.53;;;23.60;1.00;;;;;;5131725;27;20491;-54
2021/07/20 09:30:38;;;;;;;4.80;3.70;;;23.80;1.00;;;;;;5131558;27;20422;-55
2021/07/20 09:33:23;;;;;;;4.33;3.90;;;24.00;1.00;;;;;;5131768;27;20475;-55
2021/07/20 09:35:58;;;;;;;6.23;4.10;;;24.40;1.00;;;;;;5131350;27;20971;-55
2021/07/20 09:38:24;;;;;;;4.97;4.47;;;24.60;1.00;;;;;;5131787;27;20927;-54
2021/07/20 09:41:27;;;;;;;7.23;3.90;;;24.20;1.00;;;;;;5131338;27;20442;-54
2021/07/20 09:44:18;;;;;;;7.23;4.20;;;23.90;1.00;;;;;;5131594;27;20591;-56
2021/07/20 09:46:57;;;;;;;5.23;3.80;;;23.70;1.00;;;;;;5131599;27;20404;-55
2021/07/20 09:49:38;;;;;;;3.37;3.07;;;24.10;1.00;;;;;;5110290;27;20438;-53
2021/07/20 09:52:32;;;;;;;4.30;3.70;;;24.30;1.00;;;;;;5131509;27;20458;-53
2021/07/20 09:55:25;;;;;;;3.73;3.30;;;24.70;1.00;;;;;;5131272;27;20423;-53
2021/07/20 09:58:00;;;;;;;5.50;4.47;;;24.80;1.00;;;;;;5131332;27;20431;-54
2021/07/20 10:00:35;;;;;;;4.60;4.00;;;24.70;1.00;;;;;;5131633;27;20962;-55
2021/07/20 10:03:25;;;;;;;3.70;3.40;;;24.30;1.00;;;;;;5131309;27;20462;-53
2021/07/20 10:06:22;;;;;;;5.10;3.90;;;24.10;1.00;;;;;;5131151;27;20438;-54
2021/07/20 10:09:05;;;;;;;5.53;4.60;;;24.20;1.00;;;;;;5128124;27;20443;-53
2021/07/20 10:11:53;;;;;;;4.33;3.83;;;24.00;1.00;;;;;;5131300;27;20435;-53
2021/07/20 10:14:29;;;;;;;6.63;4.53;;;24.20;1.00;;;;;;5131338;27;20431;-56
2021/07/20 10:17:07;;;;;;;6.57;4.07;;;24.80;1.00;;;;;;5112718;27;20865;-54
2021/07/20 10:19:36;;;;;;;4.53;3.70;;;25.50;1.00;;;;;;5130622;27;20993;-53
2021/07/20 10:22:07;;;;;;;6.13;4.10;;;25.70;1.00;;;;;;5130437;27;20441;-53
2021/07/20 10:24:36;;;;;;;5.20;3.17;;;25.90;1.00;;;;;;5131146;27;20927;-53
2021/07/20 10:27:11;;;;;;;5.13;4.00;;;25.20;1.00;;;;;;5112706;27;20442;-53
2021/07/20 10:30:04;;;;;;;6.53;3.80;;;25.20;1.00;;;;;;5131095;27;20503;-55
2021/07/20 10:32:45;;;;;;;5.30;4.20;;;25.30;1.00;;;;;;5131254;27;20431;-56
2021/07/20 10:35:17;;;;;;;6.37;3.80;;;25.70;1.00;;;;;;5131032;27;20543;-56
2021/07/20 10:37:47;;;;;;;5.47;4.10;;;25.80;1.00;;;;;;5131049;27;20434;-52
2021/07/20 10:40:17;;;;;;;4.80;4.30;;;25.50;1.00;;;;;;5130748;27;20578;-56
2021/07/20 10:42:56;;;;;;;4.80;4.13;;;25.20;1.00;;;;;;5130794;27;20833;-56
2021/07/20 10:45:23;;;;;;;4.70;4.20;;;25.00;1.00;;;;;;5131076;27;20423;-55
2021/07/20 10:48:00;;;;;;;5.30;4.50;;;24.70;1.00;;;;;;5130865;27;20488;-52
2021/07/20 10:50:34;;;;;;;5.00;4.47;;;24.50;1.00;;;;;;5129833;27;20453;-54
2021/07/20 10:53:13;;;;;;;5.07;4.00;;;24.80;1.00;;;;;;5134079;27;20455;-55
2021/07/20 10:56:09;;;;;;;7.57;4.00;;;24.50;1.00;;;;;;5135322;27;20507;-55
2021/07/20 10:58:46;;;;;;;6.23;3.93;;;24.60;1.00;;;;;;5134841;27;20572;-54
2021/07/20 11:01:32;;;;;;;4.93;4.43;;;24.80;1.00;;;;;;5134778;27;20524;-53
2021/07/20 11:04:20;;;;;;;4.73;4.13;;;24.70;1.00;;;;;;5134580;27;20449;-52
2021/07/20 11:06:47;;;;;;;6.33;4.10;;;24.80;1.00;;;;;;5134641;27;20559;-54
2021/07/20 11:09:18;;;;;;;5.23;4.03;;;25.10;1.00;;;;;;5130993;27;20447;-53
2021/07/20 11:11:57;;;;;;;6.17;4.10;;;24.80;1.00;;;;;;5131674;27;20446;-54
2021/07/20 11:14:29;;;;;;;5.60;4.80;;;25.00;1.00;;;;;;5134244;27;20409;-53
2021/07/20 11:16:57;;;;;;;7.57;4.77;;;25.40;1.00;;;;;;5134377;27;20465;-54
2021/07/20 11:19:25;;;;;;;5.40;4.60;;;25.60;1.00;;;;;;5132365;27;20422;-54
2021/07/20 11:21:54;;;;;;;6.60;4.60;;;25.90;1.00;;;;;;5134064;27;20429;-55
2021/07/20 11:24:20;;;;;;;11.40;5.03;;;25.90;1.00;;;;;;5134350;27;20423;-54
2021/07/20 11:26:46;;;;;;;4.93;4.10;;;25.90;1.00;;;;;;5134340;27;20821;-53
2021/07/20 11:29:13;;;;;;;5.40;4.20;;;25.70;1.00;;;;;;5134224;27;20435;-55
2021/07/20 11:31:48;;;;;;;5.53;4.13;;;25.00;1.00;;;;;;5133970;27;20608;-54
2021/07/20 11:34:20;;;;;;;5.13;4.63;;;25.10;1.00;;;;;;5115614;27;20435;-54
2021/07/20 11:36:47;;;;;;;5.33;4.83;;;24.70;1.00;;;;;;5133963;27;20441;-52
2021/07/20 11:39:17;;;;;;;4.90;4.40;;;24.50;1.00;;;;;;5134040;27;20915;-54
2021/07/20 11:42:09;;;;;;;10.13;5.10;;;24.50;1.00;;;;;;5133564;27;20535;-55
2021/07/20 11:44:46;;;;;;;5.33;4.60;;;24.70;1.00;;;;;;5133802;27;20701;-53
2021/07/20 11:47:32;;;;;;;6.77;5.57;;;24.40;1.00;;;;;;5133529;27;20446;-54
2021/07/20 11:50:08;;;;;;;5.80;5.10;;;24.10;1.00;;;;;;5133027;27;20446;-54
2021/07/20 11:52:40;;;;;;;6.33;5.60;;;23.80;1.00;;;;;;5133666;27;20458;-54
2021/07/20 11:55:19;;;;;;;7.70;5.30;;;23.70;1.00;;;;;;5133616;27;20473;-54
2021/07/20 11:58:10;;;;;;;6.07;5.47;;;23.60;1.00;;;;;;5133480;27;20446;-54
2021/07/20 12:00:54;;;;;;;8.43;6.70;;;22.40;1.00;;;;;;5133336;27;20445;-53
2021/07/20 12:03:26;;;;;;;7.90;6.30;;;23.00;1.00;;;;;;5133428;27;20445;-54
2021/07/20 12:06:06;;;;;;;8.43;6.20;;;22.80;1.00;;;;;;5133295;27;20422;-53
2021/07/20 12:09:01;;;;;;;6.27;5.73;;;22.80;1.00;;;;;;5133113;27;20419;-53
2021/07/20 12:11:31;;;;;;;6.63;5.97;;;22.70;1.00;;;;;;5131324;27;20455;-54
2021/07/20 12:14:04;;;;;;;6.47;5.63;;;22.80;1.00;;;;;;5140938;27;20788;-54
2021/07/20 12:16:30;;;;;;;6.73;6.13;;;23.00;1.00;;;;;;5153634;27;20537;-55
2021/07/20 12:18:56;;;;;;;5.60;5.00;;;23.40;1.00;;;;;;5139251;27;20443;-55
2021/07/20 12:21:24;;;;;;;7.00;6.30;;;23.60;1.00;;;;;;5130305;27;20181;-54
2021/07/20 12:23:57;;;;;;;10.80;5.70;;;23.90;1.00;;;;;;5132909;27;20184;-55
2021/07/20 12:26:26;;;;;;;8.00;6.53;;;24.30;1.00;;;;;;5133098;27;20592;-54
2021/07/20 12:28:54;;;;;;;8.57;6.90;;;24.50;1.00;;;;;;5132724;27;20423;-55
2021/07/20 12:31:20;;;;;;;7.83;6.43;;;24.60;1.00;;;;;;5132988;27;20930;-56
2021/07/20 12:33:50;;;;;;;9.10;6.30;;;24.50;1.00;;;;;;5138624;27;20495;-56
2021/07/20 12:36:17;;;;;;;6.30;5.23;;;24.60;1.00;;;;;;5153418;27;20676;-55
2021/07/20 12:38:43;;;;;;;6.60;5.53;;;24.40;1.00;;;;;;5153580;27;20479;-55
2021/07/20 12:41:11;;;;;;;6.93;5.97;;;24.80;1.00;;;;;;5153525;27;20432;-55
2021/07/20 12:43:44;;;;;;;9.90;6.17;;;25.10;1.00;;;;;;5153434;27;20445;-55
2021/07/20 12:46:12;;;;;;;6.33;5.73;;;24.90;1.00;;;;;;5114235;27;20443;-54
2021/07/20 12:48:49;;;;;;;6.33;4.93;;;25.30;1.00;;;;;;5132241;27;20789;-55
2021/07/20 12:51:16;;;;;;;7.80;5.80;;;25.80;1.00;;;;;;5114142;27;20523;-55
2021/07/20 12:53:43;;;;;;;8.00;6.23;;;26.10;1.00;;;;;;5133003;27;20434;-53
2021/07/20 12:56:11;;;;;;;7.10;6.40;;;26.20;1.00;;;;;;5132077;27;20874;-55
2021/07/20 12:58:37;;;;;;;8.00;6.53;;;26.20;1.00;;;;;;5114003;27;20435;-54
2021/07/20 13:01:03;;;;;;;6.50;5.90;;;26.20;1.00;;;;;;5129392;27;20425;-56
2021/07/20 13:03:28;;;;;;;9.60;6.30;;;25.90;1.00;;;;;;5132334;27;20192;-53
2021/07/20 13:05:55;;;;;;;6.93;6.23;;;25.40;1.00;;;;;;5131930;27;20431;-54
2021/07/20 13:08:21;;;;;;;6.53;5.90;;;25.00;1.00;;;;;;5131479;27;20216;-53
2021/07/20 13:10:51;;;;;;;6.87;6.17;;;24.50;1.00;;;;;;5131769;27;20447;-55
2021/07/20 13:13:19;;;;;;;8.03;6.37;;;24.20;1.00;;;;;;5131278;27;20621;-54
2021/07/20 13:15:49;;;;;;;7.67;6.17;;;23.70;1.00;;;;;;5113112;27;20586;-54